Klondike, Illinois
Current Conditions -  °F | °C
As of 7:15 AM on Sunday 23 Nov 2014 (Local Time) from KCIR Reporting Station
Overcast Overcast  
Wind Chill: 58°   Ceiling: 1900
Heat Index: 58°   Visibility: 10mi
Dew Point: 49°   Wind: 9mph
Humidity: 71%   Direction: 120°ESE
Pressure: 29.78"   Gusts: NA
Location:  37.048°N, 89.2036°W
Report Text: KCIR 231315Z AUTO 12008KT 10SM OVC019 15/10 A2978 RMK AO2 T01470095
Loading
Personal Weather Stations






























Interactive Weather Map New forecast layout! Learn more

10-Day Weather Forecast

Advertisements
Track Severe Weather on mobile